Time,TemperatureF,DewpointF,PressureIn,WindDirection,WindDirectionDegrees,WindSpeedMPH,WindSpeedGustMPH,Humidity,HourlyPrecipIn,Conditions,Clouds,dailyrainin,SolarRadiationWatts/m^2,SoftwareType,DateUTC
2013-02-23 00:00:00,47.5,45.9,30.25,SW,226,6.0,6.0,94,0.00,,,0.00,0,Wunderground v.1.15,2013-02-23 08:00:00,
2013-02-23 00:09:00,47.4,45.8,30.24,WSW,239,0.0,0.0,94,0.00,,,0.00,0,Wunderground v.1.15,2013-02-23 08:09:00,
2013-02-23 00:15:00,47.3,45.7,30.25,SW,214,3.0,3.0,94,0.00,,,0.00,0,Wunderground v.1.15,2013-02-23 08:15:00,
2013-02-23 00:24:00,47.1,45.5,30.24,SSW,211,5.0,5.0,94,0.00,,,0.00,0,Wunderground v.1.15,2013-02-23 08:24:00,
2013-02-23 00:29:00,47.1,45.5,30.25,SW,231,3.0,5.0,94,0.00,,,0.00,0,Wunderground v.1.15,2013-02-23 08:29:00,
2013-02-23 00:34:00,47.0,45.6,30.25,SW,234,0.0,0.0,95,0.00,,,0.00,0,Wunderground v.1.15,2013-02-23 08:34:00,
2013-02-23 00:39:00,47.0,45.6,30.24,SSW,201,0.0,0.0,95,0.00,,,0.00,0,Wunderground v.1.15,2013-02-23 08:39:00,
2013-02-23 00:49:00,47.0,45.6,30.24,SSW,193,8.0,8.0,95,0.00,,,0.00,0,Wunderground v.1.15,2013-02-23 08:49:00,
2013-02-23 00:54:00,46.9,45.5,30.24,SSW,192,0.0,0.0,95,0.00,,,0.00,0,Wunderground v.1.15,2013-02-23 08:54:00,
2013-02-23 01:00:00,46.9,45.5,30.24,SSW,208,5.0,5.0,95,0.00,,,0.00,0,Wunderground v.1.15,2013-02-23 09:00:00,
2013-02-23 01:05:00,46.8,45.4,30.23,SSW,202,7.0,7.0,95,0.00,,,0.00,0,Wunderground v.1.15,2013-02-23 09:05:00,
2013-02-23 01:14:00,46.7,45.6,30.23,South,188,3.0,3.0,96,0.00,,,0.00,0,Wunderground v.1.15,2013-02-23 09:14:00,
2013-02-23 01:19:00,46.6,45.2,30.23,SW,219,4.0,4.0,95,0.00,,,0.00,0,Wunderground v.1.15,2013-02-23 09:19:00,
2013-02-23 01:24:00,46.6,45.0,30.23,WSW,256,2.0,4.0,94,0.00,,,0.00,0,Wunderground v.1.15,2013-02-23 09:24:00,
2013-02-23 01:30:00,46.6,45.0,30.23,SSW,207,4.0,4.0,94,0.00,,,0.00,0,Wunderground v.1.15,2013-02-23 09:30:00,
2013-02-23 01:34:00,46.6,44.7,30.23,SW,216,4.0,4.0,93,0.00,,,0.00,0,Wunderground v.1.15,2013-02-23 09:34:00,
2013-02-23 01:40:00,46.6,44.4,30.23,SSW,211,3.0,3.0,92,0.00,,,0.00,0,Wunderground v.1.15,2013-02-23 09:40:00,
2013-02-23 01:49:00,46.5,44.3,30.23,SW,214,7.0,7.0,92,0.00,,,0.00,0,Wunderground v.1.15,2013-02-23 09:49:00,
2013-02-23 01:59:00,46.6,44.1,30.22,SSW,208,4.0,4.0,91,0.00,,,0.00,0,Wunderground v.1.15,2013-02-23 09:59:00,
2013-02-23 02:09:00,46.7,44.2,30.20,SSW,206,4.0,4.0,91,0.00,,,0.00,0,Wunderground v.1.15,2013-02-23 10:09:00,
2013-02-23 02:14:00,46.7,44.2,30.21,SSW,209,0.0,4.0,91,0.00,,,0.00,0,Wunderground v.1.15,2013-02-23 10:14:00,
2013-02-23 02:20:00,46.7,44.2,30.22,SW,221,0.0,0.0,91,0.00,,,0.00,0,Wunderground v.1.15,2013-02-23 10:20:00,
2013-02-23 02:25:00,46.7,44.2,30.23,West,261,3.0,3.0,91,0.00,,,0.00,0,Wunderground v.1.15,2013-02-23 10:25:00,
2013-02-23 02:34:00,46.5,44.3,30.23,WSW,256,2.0,2.0,92,0.00,,,0.00,0,Wunderground v.1.15,2013-02-23 10:34:00,
2013-02-23 02:39:00,46.6,44.1,30.23,SSW,199,1.0,1.0,91,0.00,,,0.00,0,Wunderground v.1.15,2013-02-23 10:39:00,
2013-02-23 02:44:00,46.8,44.3,30.22,South,191,0.0,1.0,91,0.00,,,0.00,0,Wunderground v.1.15,2013-02-23 10:44:00,
2013-02-23 02:49:00,46.9,44.4,30.22,SSW,213,0.0,0.0,91,0.00,,,0.00,0,Wunderground v.1.15,2013-02-23 10:49:00,
2013-02-23 02:54:00,47.1,44.6,30.22,SW,219,4.0,4.0,91,0.00,,,0.00,0,Wunderground v.1.15,2013-02-23 10:54:00,
2013-02-23 02:59:00,47.2,44.7,30.22,SW,233,0.0,0.0,91,0.00,,,0.00,0,Wunderground v.1.15,2013-02-23 10:59:00,
2013-02-23 03:04:00,47.2,44.7,30.22,SSW,202,5.0,5.0,91,0.00,,,0.00,0,Wunderground v.1.15,2013-02-23 11:04:00,
2013-02-23 03:09:00,47.3,44.5,30.21,SSW,208,4.0,4.0,90,0.00,,,0.00,0,Wunderground v.1.15,2013-02-23 11:09:00,
2013-02-23 03:14:00,47.3,44.5,30.22,SW,219,3.0,4.0,90,0.00,,,0.00,0,Wunderground v.1.15,2013-02-23 11:14:00,
2013-02-23 03:20:00,47.3,44.8,30.22,SW,230,1.0,1.0,91,0.00,,,0.00,0,Wunderground v.1.15,2013-02-23 11:20:00,
2013-02-23 03:25:00,47.3,44.8,30.21,SSW,198,8.0,8.0,91,0.00,,,0.00,0,Wunderground v.1.15,2013-02-23 11:25:00,
2013-02-23 03:34:00,47.3,44.8,30.21,SSW,205,3.0,5.0,91,0.00,,,0.00,0,Wunderground v.1.15,2013-02-23 11:34:00,
2013-02-23 03:39:00,47.2,44.4,30.20,SW,225,3.0,3.0,90,0.00,,,0.00,0,Wunderground v.1.15,2013-02-23 11:39:00,
2013-02-23 03:44:00,47.1,44.3,30.20,SW,220,3.0,3.0,90,0.00,,,0.00,0,Wunderground v.1.15,2013-02-23 11:44:00,
2013-02-23 03:49:00,47.1,44.3,30.19,SSW,198,3.0,3.0,90,0.00,,,0.00,0,Wunderground v.1.15,2013-02-23 11:49:00,
2013-02-23 03:54:00,47.1,44.3,30.19,SW,220,0.0,3.0,90,0.00,,,0.00,0,Wunderground v.1.15,2013-02-23 11:54:00,
2013-02-23 03:59:00,47.1,44.3,30.20,SSW,197,1.0,1.0,90,0.00,,,0.00,0,Wunderground v.1.15,2013-02-23 11:59:00,
2013-02-23 04:09:00,47.1,44.6,30.20,West,281,1.0,1.0,91,0.00,,,0.00,0,Wunderground v.1.15,2013-02-23 12:09:00,
2013-02-23 04:19:00,47.1,44.6,30.21,SW,223,0.0,0.0,91,0.00,,,0.00,0,Wunderground v.1.15,2013-02-23 12:19:00,
2013-02-23 04:24:00,47.1,44.6,30.21,South,181,0.0,0.0,91,0.00,,,0.00,0,Wunderground v.1.15,2013-02-23 12:24:00,
2013-02-23 04:29:00,47.1,44.6,30.20,SW,218,0.0,0.0,91,0.00,,,0.00,0,Wunderground v.1.15,2013-02-23 12:29:00,
2013-02-23 04:39:00,46.9,44.7,30.19,SSW,207,3.0,3.0,92,0.00,,,0.00,0,Wunderground v.1.15,2013-02-23 12:39:00,
2013-02-23 04:49:00,46.8,44.9,30.19,SSW,209,0.0,0.0,93,0.00,,,0.00,0,Wunderground v.1.15,2013-02-23 12:49:00,
2013-02-23 04:54:00,46.8,44.9,30.19,SSW,205,3.0,3.0,93,0.00,,,0.00,0,Wunderground v.1.15,2013-02-23 12:54:00,
2013-02-23 05:04:00,46.6,45.0,30.18,SSW,203,10.0,10.0,94,0.00,,,0.00,0,Wunderground v.1.15,2013-02-23 13:04:00,
2013-02-23 05:09:00,46.5,44.9,30.18,SSW,201,4.0,4.0,94,0.00,,,0.00,0,Wunderground v.1.15,2013-02-23 13:09:00,
2013-02-23 05:14:00,46.5,44.9,30.18,South,190,3.0,4.0,94,0.00,,,0.00,0,Wunderground v.1.15,2013-02-23 13:14:00,
2013-02-23 05:19:00,46.6,45.2,30.19,SSW,193,2.0,2.0,95,0.00,,,0.00,0,Wunderground v.1.15,2013-02-23 13:19:00,
2013-02-23 05:29:00,46.7,45.3,30.18,SSW,204,3.0,3.0,95,0.00,,,0.00,0,Wunderground v.1.15,2013-02-23 13:29:00,
2013-02-23 05:39:00,46.6,45.0,30.18,SSW,205,1.0,1.0,94,0.00,,,0.00,0,Wunderground v.1.15,2013-02-23 13:39:00,
2013-02-23 05:44:00,46.5,44.9,30.19,SW,218,4.0,4.0,94,0.00,,,0.00,0,Wunderground v.1.15,2013-02-23 13:44:00,
2013-02-23 05:54:00,46.6,45.2,30.20,SSW,207,4.0,4.0,95,0.00,,,0.00,0,Wunderground v.1.15,2013-02-23 13:54:00,
2013-02-23 05:59:00,46.7,45.3,30.20,SSW,199,3.0,3.0,95,0.00,,,0.00,0,Wunderground v.1.15,2013-02-23 13:59:00,
2013-02-23 06:05:00,46.7,45.3,30.20,SW,224,1.0,3.0,95,0.00,,,0.00,0,Wunderground v.1.15,2013-02-23 14:05:00,
2013-02-23 06:10:00,46.7,45.3,30.20,South,185,0.0,0.0,95,0.00,,,0.00,0,Wunderground v.1.15,2013-02-23 14:10:00,
2013-02-23 06:19:00,46.6,45.2,30.20,WSW,243,0.0,0.0,95,0.00,,,0.00,0,Wunderground v.1.15,2013-02-23 14:19:00,
2013-02-23 06:29:00,46.4,45.0,30.21,WSW,243,0.0,0.0,95,0.00,,,0.00,0,Wunderground v.1.15,2013-02-23 14:29:00,
2013-02-23 06:34:00,46.4,45.0,30.21,WSW,243,0.0,0.0,95,0.00,,,0.00,0,Wunderground v.1.15,2013-02-23 14:34:00,
2013-02-23 06:39:00,46.3,44.9,30.21,WSW,243,0.0,0.0,95,0.00,,,0.00,0,Wunderground v.1.15,2013-02-23 14:39:00,
2013-02-23 06:49:00,46.2,44.6,30.21,SW,231,2.0,2.0,94,0.00,,,0.00,0,Wunderground v.1.15,2013-02-23 14:49:00,
2013-02-23 06:54:00,46.1,44.7,30.22,SSW,207,0.0,2.0,95,0.00,,,0.00,0,Wunderground v.1.15,2013-02-23 14:54:00,
2013-02-23 06:59:00,46.0,44.6,30.22,SSW,206,0.0,0.0,95,0.00,,,0.00,0,Wunderground v.1.15,2013-02-23 14:59:00,
2013-02-23 07:09:00,45.6,45.1,30.23,SSW,208,1.0,1.0,98,0.00,,,0.00,0,Wunderground v.1.15,2013-02-23 15:09:00,
2013-02-23 07:15:00,45.6,45.6,30.23,SSW,201,0.0,1.0,100,0.00,,,0.00,0,Wunderground v.1.15,2013-02-23 15:15:00,
2013-02-23 07:20:00,45.5,45.5,30.23,SSW,203,0.0,0.0,100,0.00,,,0.00,0,Wunderground v.1.15,2013-02-23 15:20:00,
2013-02-23 07:29:00,45.4,45.4,30.23,SSW,200,3.0,3.0,100,0.00,,,0.00,0,Wunderground v.1.15,2013-02-23 15:29:00,
2013-02-23 07:39:00,45.3,45.3,30.24,SSW,207,3.0,3.0,100,0.00,,,0.00,0,Wunderground v.1.15,2013-02-23 15:39:00,
2013-02-23 07:44:00,45.2,45.2,30.24,SSW,196,0.0,3.0,100,0.00,,,0.00,0,Wunderground v.1.15,2013-02-23 15:44:00,
2013-02-23 07:49:00,45.3,45.3,30.25,SSW,196,0.0,0.0,100,0.00,,,0.00,0,Wunderground v.1.15,2013-02-23 15:49:00,
2013-02-23 07:59:00,45.8,45.8,30.24,SSW,196,0.0,0.0,100,0.00,,,0.00,0,Wunderground v.1.15,2013-02-23 15:59:00,
2013-02-23 08:09:00,46.7,46.7,30.25,SSW,202,0.0,0.0,100,0.00,,,0.00,0,Wunderground v.1.15,2013-02-23 16:09:00,
2013-02-23 08:14:00,47.1,47.1,30.25,West,260,0.0,0.0,100,0.00,,,0.00,0,Wunderground v.1.15,2013-02-23 16:14:00,
2013-02-23 08:19:00,47.2,46.9,30.25,South,184,1.0,1.0,99,0.00,,,0.00,0,Wunderground v.1.15,2013-02-23 16:19:00,
2013-02-23 08:29:00,47.7,46.9,30.26,WNW,302,3.0,3.0,97,0.00,,,0.00,0,Wunderground v.1.15,2013-02-23 16:29:00,
2013-02-23 08:39:00,47.7,46.1,30.26,WNW,295,4.0,4.0,94,0.00,,,0.00,0,Wunderground v.1.15,2013-02-23 16:39:00,
2013-02-23 08:49:00,47.8,45.3,30.26,NW,307,4.0,4.0,91,0.00,,,0.00,0,Wunderground v.1.15,2013-02-23 16:49:00,
2013-02-23 08:59:00,48.2,45.4,30.26,WNW,303,2.0,2.0,90,0.00,,,0.00,0,Wunderground v.1.15,2013-02-23 16:59:00,
2013-02-23 09:04:00,48.4,45.3,30.26,NW,305,1.0,2.0,89,0.00,,,0.00,0,Wunderground v.1.15,2013-02-23 17:04:00,
2013-02-23 09:09:00,48.8,45.7,30.26,WNW,294,0.0,0.0,89,0.00,,,0.00,0,Wunderground v.1.15,2013-02-23 17:09:00,
2013-02-23 09:19:00,49.0,45.0,30.26,NW,321,3.0,3.0,86,0.00,,,0.00,0,Wunderground v.1.15,2013-02-23 17:19:00,
2013-02-23 09:24:00,49.2,44.9,30.26,NW,307,0.0,3.0,85,0.00,,,0.00,0,Wunderground v.1.15,2013-02-23 17:24:00,
2013-02-23 09:34:00,49.8,45.2,30.26,WNW,291,1.0,5.0,84,0.00,,,0.00,0,Wunderground v.1.15,2013-02-23 17:34:00,
2013-02-23 09:39:00,50.0,45.0,30.26,NW,320,6.0,6.0,83,0.00,,,0.00,0,Wunderground v.1.15,2013-02-23 17:39:00,
2013-02-23 09:45:00,50.1,44.8,30.26,WNW,298,1.0,6.0,82,0.00,,,0.00,0,Wunderground v.1.15,2013-02-23 17:45:00,
2013-02-23 09:50:00,50.0,44.4,30.26,North,355,3.0,3.0,81,0.00,,,0.00,0,Wunderground v.1.15,2013-02-23 17:50:00,
2013-02-23 09:59:00,50.5,44.2,30.25,NW,313,4.0,4.0,79,0.00,,,0.00,0,Wunderground v.1.15,2013-02-23 17:59:00,
2013-02-23 10:09:00,51.4,45.4,30.26,West,267,2.0,2.0,80,0.00,,,0.00,0,Wunderground v.1.15,2013-02-23 18:09:00,
2013-02-23 10:14:00,51.4,44.4,30.25,NW,319,4.0,4.0,77,0.00,,,0.00,0,Wunderground v.1.15,2013-02-23 18:14:00,
2013-02-23 10:24:00,51.5,44.2,30.25,NW,305,2.0,3.0,76,0.00,,,0.00,0,Wunderground v.1.15,2013-02-23 18:24:00,
2013-02-23 10:29:00,51.9,43.9,30.25,WNW,302,1.0,1.0,74,0.00,,,0.00,0,Wunderground v.1.15,2013-02-23 18:29:00,
2013-02-23 10:34:00,52.1,43.7,30.25,North,352,6.0,6.0,73,0.00,,,0.00,0,Wunderground v.1.15,2013-02-23 18:34:00,
2013-02-23 10:40:00,52.1,43.3,30.24,North,358,2.0,2.0,72,0.00,,,0.00,0,Wunderground v.1.15,2013-02-23 18:40:00,
2013-02-23 10:49:00,52.4,42.9,30.25,NNW,328,6.0,6.0,70,0.00,,,0.00,0,Wunderground v.1.15,2013-02-23 18:49:00,
2013-02-23 10:54:00,52.6,42.3,30.25,North,355,6.0,6.0,68,0.00,,,0.00,0,Wunderground v.1.15,2013-02-23 18:54:00,
2013-02-23 11:00:00,52.6,41.9,30.25,North,353,5.0,5.0,67,0.00,,,0.00,0,Wunderground v.1.15,2013-02-23 19:00:00,
2013-02-23 11:05:00,53.0,42.3,30.25,NW,321,6.0,6.0,67,0.00,,,0.00,0,Wunderground v.1.15,2013-02-23 19:05:00,
2013-02-23 11:14:00,53.3,41.8,30.25,NNE,31,2.0,5.0,65,0.00,,,0.00,0,Wunderground v.1.15,2013-02-23 19:14:00,
2013-02-23 11:19:00,53.2,41.3,30.24,North,349,3.0,3.0,64,0.00,,,0.00,0,Wunderground v.1.15,2013-02-23 19:19:00,
2013-02-23 11:24:00,53.6,40.9,30.24,NNW,331,3.0,3.0,62,0.00,,,0.00,0,Wunderground v.1.15,2013-02-23 19:24:00,
2013-02-23 11:29:00,54.4,40.4,30.25,North,355,4.0,4.0,59,0.00,,,0.00,0,Wunderground v.1.15,2013-02-23 19:29:00,
2013-02-23 11:34:00,54.8,40.3,30.24,North,11,4.0,4.0,58,0.00,,,0.00,0,Wunderground v.1.15,2013-02-23 19:34:00,
2013-02-23 11:39:00,54.9,40.4,30.24,North,351,6.0,6.0,58,0.00,,,0.00,0,Wunderground v.1.15,2013-02-23 19:39:00,
2013-02-23 11:44:00,55.2,40.7,30.24,NW,318,1.0,6.0,58,0.00,,,0.00,0,Wunderground v.1.15,2013-02-23 19:44:00,
2013-02-23 11:50:00,55.4,40.4,30.23,North,4,3.0,3.0,57,0.00,,,0.00,0,Wunderground v.1.15,2013-02-23 19:50:00,
2013-02-23 11:59:00,55.0,38.6,30.23,North,2,8.0,8.0,54,0.00,,,0.00,0,Wunderground v.1.15,2013-02-23 19:59:00,
2013-02-23 12:05:00,55.1,38.7,30.23,NNE,29,4.0,8.0,54,0.00,,,0.00,0,Wunderground v.1.15,2013-02-23 20:05:00,
2013-02-23 12:14:00,55.4,38.5,30.23,North,351,7.0,8.0,53,0.00,,,0.00,0,Wunderground v.1.15,2013-02-23 20:14:00,
2013-02-23 12:19:00,55.4,38.1,30.22,NNW,341,9.0,9.0,52,0.00,,,0.00,0,Wunderground v.1.15,2013-02-23 20:19:00,
2013-02-23 12:29:00,55.4,37.6,30.22,NNE,30,2.0,2.0,51,0.00,,,0.00,0,Wunderground v.1.15,2013-02-23 20:29:00,
2013-02-23 12:35:00,55.6,37.7,30.21,NNW,339,6.0,6.0,51,0.00,,,0.00,0,Wunderground v.1.15,2013-02-23 20:35:00,
2013-02-23 12:44:00,55.9,37.0,30.21,North,2,3.0,6.0,49,0.00,,,0.00,0,Wunderground v.1.15,2013-02-23 20:44:00,
2013-02-23 12:49:00,56.1,36.7,30.21,NNE,14,9.0,9.0,48,0.00,,,0.00,0,Wunderground v.1.15,2013-02-23 20:49:00,
2013-02-23 12:54:00,56.0,36.0,30.20,North,7,4.0,9.0,47,0.00,,,0.00,0,Wunderground v.1.15,2013-02-23 20:54:00,
2013-02-23 12:59:00,56.0,36.0,30.20,North,358,6.0,6.0,47,0.00,,,0.00,0,Wunderground v.1.15,2013-02-23 20:59:00,
2013-02-23 13:04:00,55.9,35.4,30.20,North,6,7.0,7.0,46,0.00,,,0.00,0,Wunderground v.1.15,2013-02-23 21:04:00,
2013-02-23 13:09:00,56.2,35.7,30.20,North,9,6.0,6.0,46,0.00,,,0.00,0,Wunderground v.1.15,2013-02-23 21:09:00,
2013-02-23 13:15:00,56.6,36.6,30.20,North,4,6.0,6.0,47,0.00,,,0.00,0,Wunderground v.1.15,2013-02-23 21:15:00,
2013-02-23 13:25:00,56.5,36.0,30.19,NNE,24,3.0,7.0,46,0.00,,,0.00,0,Wunderground v.1.15,2013-02-23 21:25:00,
2013-02-23 13:34:00,56.7,36.7,30.18,North,349,2.0,6.0,47,0.00,,,0.00,0,Wunderground v.1.15,2013-02-23 21:34:00,
2013-02-23 13:39:00,56.5,35.4,30.18,NNW,348,3.0,3.0,45,0.00,,,0.00,0,Wunderground v.1.15,2013-02-23 21:39:00,
2013-02-23 13:44:00,56.7,36.1,30.18,North,7,13.0,13.0,46,0.00,,,0.00,0,Wunderground v.1.15,2013-02-23 21:44:00,
2013-02-23 13:50:00,57.0,36.4,30.18,NW,322,4.0,4.0,46,0.00,,,0.00,0,Wunderground v.1.15,2013-02-23 21:50:00,
2013-02-23 13:59:00,57.2,36.0,30.18,North,358,5.0,5.0,45,0.00,,,0.00,0,Wunderground v.1.15,2013-02-23 21:59:00,
2013-02-23 14:09:00,56.8,35.7,30.18,NNE,20,11.0,11.0,45,0.00,,,0.00,0,Wunderground v.1.15,2013-02-23 22:09:00,
2013-02-23 14:14:00,56.7,35.0,30.17,NNW,331,4.0,11.0,44,0.00,,,0.00,0,Wunderground v.1.15,2013-02-23 22:14:00,
2013-02-23 14:19:00,56.8,35.7,30.18,North,354,2.0,2.0,45,0.00,,,0.00,0,Wunderground v.1.15,2013-02-23 22:19:00,
2013-02-23 14:30:00,57.1,36.5,30.17,North,9,6.0,6.0,46,0.00,,,0.00,0,Wunderground v.1.15,2013-02-23 22:30:00,
2013-02-23 14:34:00,57.0,36.4,30.18,NNE,28,5.0,6.0,46,0.00,,,0.00,0,Wunderground v.1.15,2013-02-23 22:34:00,
2013-02-23 14:40:00,56.7,36.1,30.17,North,10,12.0,12.0,46,0.00,,,0.00,0,Wunderground v.1.15,2013-02-23 22:40:00,
2013-02-23 14:49:00,57.0,37.0,30.17,WNW,295,8.0,8.0,47,0.00,,,0.00,0,Wunderground v.1.15,2013-02-23 22:49:00,
2013-02-23 14:54:00,57.1,37.0,30.17,NNW,346,5.0,8.0,47,0.00,,,0.00,0,Wunderground v.1.15,2013-02-23 22:54:00,
2013-02-23 14:59:00,57.1,37.0,30.17,NE,36,5.0,5.0,47,0.00,,,0.00,0,Wunderground v.1.15,2013-02-23 22:59:00,
2013-02-23 15:09:00,57.6,37.5,30.17,WNW,291,3.0,3.0,47,0.00,,,0.00,0,Wunderground v.1.15,2013-02-23 23:09:00,
2013-02-23 15:14:00,57.3,36.7,30.17,NNW,344,2.0,3.0,46,0.00,,,0.00,0,Wunderground v.1.15,2013-02-23 23:14:00,
2013-02-23 15:19:00,57.3,36.7,30.17,North,350,6.0,6.0,46,0.00,,,0.00,0,Wunderground v.1.15,2013-02-23 23:19:00,
2013-02-23 15:29:00,57.3,36.7,30.17,North,355,7.0,7.0,46,0.00,,,0.00,0,Wunderground v.1.15,2013-02-23 23:29:00,
2013-02-23 15:39:00,57.3,36.7,30.17,NNW,339,6.0,6.0,46,0.00,,,0.00,0,Wunderground v.1.15,2013-02-23 23:39:00,
2013-02-23 15:44:00,57.1,37.0,30.17,WNW,297,3.0,6.0,47,0.00,,,0.00,0,Wunderground v.1.15,2013-02-23 23:44:00,
2013-02-23 15:49:00,57.0,37.0,30.17,NNW,342,3.0,3.0,47,0.00,,,0.00,0,Wunderground v.1.15,2013-02-23 23:49:00,
2013-02-23 15:59:00,56.9,36.9,30.17,North,359,4.0,4.0,47,0.00,,,0.00,0,Wunderground v.1.15,2013-02-23 23:59:00,
2013-02-23 16:05:00,56.8,36.8,30.17,North,350,6.0,6.0,47,0.00,,,0.00,0,Wunderground v.1.15,2013-02-24 00:05:00,
2013-02-23 16:10:00,56.7,36.7,30.17,NW,306,7.0,7.0,47,0.00,,,0.00,0,Wunderground v.1.15,2013-02-24 00:10:00,
2013-02-23 16:19:00,57.0,37.0,30.16,North,4,9.0,9.0,47,0.00,,,0.00,0,Wunderground v.1.15,2013-02-24 00:19:00,
2013-02-23 16:29:00,56.9,34.6,30.16,North,349,10.0,10.0,43,0.00,,,0.00,0,Wunderground v.1.15,2013-02-24 00:29:00,
2013-02-23 16:34:00,56.7,33.8,30.17,North,3,9.0,10.0,42,0.00,,,0.00,0,Wunderground v.1.15,2013-02-24 00:34:00,
2013-02-23 16:39:00,56.7,34.4,30.16,NE,41,5.0,5.0,43,0.00,,,0.00,0,Wunderground v.1.15,2013-02-24 00:39:00,
2013-02-23 16:49:00,56.4,33.6,30.17,NNE,32,2.0,2.0,42,0.00,,,0.00,0,Wunderground v.1.15,2013-02-24 00:49:00,
2013-02-23 16:59:00,56.3,34.6,30.17,NNW,344,5.0,5.0,44,0.00,,,0.00,0,Wunderground v.1.15,2013-02-24 00:59:00,
2013-02-23 17:04:00,56.2,34.0,30.17,North,355,7.0,7.0,43,0.00,,,0.00,0,Wunderground v.1.15,2013-02-24 01:04:00,
2013-02-23 17:09:00,56.1,34.5,30.17,North,3,3.0,3.0,44,0.00,,,0.00,0,Wunderground v.1.15,2013-02-24 01:09:00,
2013-02-23 17:19:00,55.9,35.4,30.17,North,7,5.0,5.0,46,0.00,,,0.00,0,Wunderground v.1.15,2013-02-24 01:19:00,
2013-02-23 17:29:00,55.5,35.0,30.17,North,354,7.0,7.0,46,0.00,,,0.00,0,Wunderground v.1.15,2013-02-24 01:29:00,
2013-02-23 17:34:00,55.3,35.4,30.18,North,6,6.0,7.0,47,0.00,,,0.00,0,Wunderground v.1.15,2013-02-24 01:34:00,
2013-02-23 17:39:00,55.0,36.2,30.18,NNW,340,4.0,4.0,49,0.00,,,0.00,0,Wunderground v.1.15,2013-02-24 01:39:00,
2013-02-23 17:49:00,54.6,36.8,30.18,North,355,9.0,9.0,51,0.00,,,0.00,0,Wunderground v.1.15,2013-02-24 01:49:00,
2013-02-23 17:54:00,54.3,36.5,30.18,North,1,4.0,9.0,51,0.00,,,0.00,0,Wunderground v.1.15,2013-02-24 01:54:00,
2013-02-23 17:59:00,54.0,36.8,30.18,North,350,3.0,3.0,52,0.00,,,0.00,0,Wunderground v.1.15,2013-02-24 01:59:00,
2013-02-23 18:09:00,53.4,36.7,30.19,North,357,4.0,4.0,53,0.00,,,0.00,0,Wunderground v.1.15,2013-02-24 02:09:00,
2013-02-23 18:19:00,52.9,36.7,30.19,NNW,347,4.0,4.0,54,0.00,,,0.00,0,Wunderground v.1.15,2013-02-24 02:19:00,
2013-02-23 18:24:00,52.6,36.9,30.19,North,358,5.0,5.0,55,0.00,,,0.00,0,Wunderground v.1.15,2013-02-24 02:24:00,
2013-02-23 18:29:00,52.4,36.7,30.20,North,357,5.0,5.0,55,0.00,,,0.00,0,Wunderground v.1.15,2013-02-24 02:29:00,
2013-02-23 18:39:00,52.0,37.2,30.20,North,0,3.0,3.0,57,0.00,,,0.00,0,Wunderground v.1.15,2013-02-24 02:39:00,
2013-02-23 18:50:00,51.5,36.8,30.21,NNE,16,4.0,4.0,57,0.00,,,0.00,0,Wunderground v.1.15,2013-02-24 02:50:00,
2013-02-23 18:59:00,51.2,36.9,30.21,North,0,1.0,1.0,58,0.00,,,0.00,0,Wunderground v.1.15,2013-02-24 02:59:00,
2013-02-23 19:09:00,50.8,37.0,30.21,North,0,0.0,0.0,59,0.00,,,0.00,0,Wunderground v.1.15,2013-02-24 03:09:00,
2013-02-23 19:19:00,50.0,36.7,30.20,North,0,0.0,0.0,60,0.00,,,0.00,0,Wunderground v.1.15,2013-02-24 03:19:00,
2013-02-23 19:24:00,49.7,36.4,30.20,North,0,0.0,0.0,60,0.00,,,0.00,0,Wunderground v.1.15,2013-02-24 03:24:00,
2013-02-23 19:29:00,49.2,36.7,30.20,North,0,0.0,0.0,62,0.00,,,0.00,0,Wunderground v.1.15,2013-02-24 03:29:00,
2013-02-23 19:39:00,48.0,36.4,30.20,North,0,0.0,0.0,64,0.00,,,0.00,0,Wunderground v.1.15,2013-02-24 03:39:00,
2013-02-23 19:44:00,47.6,36.0,30.21,NNE,33,1.0,1.0,64,0.00,,,0.00,0,Wunderground v.1.15,2013-02-24 03:44:00,
2013-02-23 19:49:00,47.2,36.8,30.21,NE,54,1.0,1.0,67,0.00,,,0.00,0,Wunderground v.1.15,2013-02-24 03:49:00,
2013-02-23 19:59:00,46.9,36.1,30.21,NE,54,0.0,0.0,66,0.00,,,0.00,0,Wunderground v.1.15,2013-02-24 03:59:00,
2013-02-23 20:09:00,46.6,35.5,30.21,NE,54,0.0,0.0,65,0.00,,,0.00,0,Wunderground v.1.15,2013-02-24 04:09:00,
2013-02-23 20:14:00,46.3,35.2,30.21,NE,54,2.0,2.0,65,0.00,,,0.00,0,Wunderground v.1.15,2013-02-24 04:14:00,
2013-02-23 20:19:00,46.0,34.9,30.21,NE,54,0.0,0.0,65,0.00,,,0.00,0,Wunderground v.1.15,2013-02-24 04:19:00,
2013-02-23 20:29:00,45.6,35.3,30.21,NE,54,0.0,0.0,67,0.00,,,0.00,0,Wunderground v.1.15,2013-02-24 04:29:00,
2013-02-23 20:34:00,45.5,35.5,30.22,NE,54,0.0,0.0,68,0.00,,,0.00,0,Wunderground v.1.15,2013-02-24 04:34:00,
2013-02-23 20:39:00,45.5,35.9,30.22,NE,54,0.0,0.0,69,0.00,,,0.00,0,Wunderground v.1.15,2013-02-24 04:39:00,
2013-02-23 20:49:00,45.2,36.0,30.22,NE,54,0.0,0.0,70,0.00,,,0.00,0,Wunderground v.1.15,2013-02-24 04:49:00,
2013-02-23 20:59:00,44.9,35.7,30.22,NE,54,0.0,0.0,70,0.00,,,0.00,0,Wunderground v.1.15,2013-02-24 04:59:00,
2013-02-23 21:04:00,44.6,36.5,30.22,NE,54,0.0,0.0,73,0.00,,,0.00,0,Wunderground v.1.15,2013-02-24 05:04:00,
2013-02-23 21:09:00,44.3,36.2,30.22,NE,54,0.0,0.0,73,0.00,,,0.00,0,Wunderground v.1.15,2013-02-24 05:09:00,
2013-02-23 21:19:00,44.1,37.0,30.22,SSE,160,2.0,2.0,76,0.00,,,0.00,0,Wunderground v.1.15,2013-02-24 05:19:00,
2013-02-23 21:25:00,44.1,36.7,30.22,SSE,160,1.0,2.0,75,0.00,,,0.00,0,Wunderground v.1.15,2013-02-24 05:25:00,
2013-02-23 21:34:00,43.9,36.8,30.22,South,180,2.0,4.0,76,0.00,,,0.00,0,Wunderground v.1.15,2013-02-24 05:34:00,
2013-02-23 21:39:00,43.6,36.5,30.22,South,177,1.0,1.0,76,0.00,,,0.00,0,Wunderground v.1.15,2013-02-24 05:39:00,
2013-02-23 21:49:00,43.4,37.0,30.22,South,177,2.0,2.0,78,0.00,,,0.00,0,Wunderground v.1.15,2013-02-24 05:49:00,
2013-02-23 21:54:00,43.6,37.2,30.22,South,186,0.0,2.0,78,0.00,,,0.00,0,Wunderground v.1.15,2013-02-24 05:54:00,
2013-02-23 21:59:00,43.9,37.5,30.22,South,186,0.0,0.0,78,0.00,,,0.00,0,Wunderground v.1.15,2013-02-24 05:59:00,
2013-02-23 22:09:00,44.7,37.6,30.22,WNW,299,3.0,3.0,76,0.00,,,0.00,0,Wunderground v.1.15,2013-02-24 06:09:00,
2013-02-23 22:14:00,45.4,37.9,30.22,WNW,296,1.0,3.0,75,0.00,,,0.00,0,Wunderground v.1.15,2013-02-24 06:14:00,
2013-02-23 22:24:00,45.9,38.1,30.22,WNW,283,2.0,3.0,74,0.00,,,0.00,0,Wunderground v.1.15,2013-02-24 06:24:00,
2013-02-23 22:29:00,46.0,38.2,30.22,NW,307,0.0,0.0,74,0.00,,,0.00,0,Wunderground v.1.15,2013-02-24 06:29:00,
2013-02-23 22:39:00,45.9,38.1,30.22,WNW,285,0.0,0.0,74,0.00,,,0.00,0,Wunderground v.1.15,2013-02-24 06:39:00,
2013-02-23 22:49:00,45.5,38.0,30.22,WNW,299,0.0,0.0,75,0.00,,,0.00,0,Wunderground v.1.15,2013-02-24 06:49:00,
2013-02-23 22:54:00,45.1,37.6,30.22,WNW,284,0.0,0.0,75,0.00,,,0.00,0,Wunderground v.1.15,2013-02-24 06:54:00,
2013-02-23 22:59:00,44.6,37.5,30.22,West,280,0.0,0.0,76,0.00,,,0.00,0,Wunderground v.1.15,2013-02-24 06:59:00,
2013-02-23 23:09:00,44.0,36.9,30.22,West,280,1.0,1.0,76,0.00,,,0.00,0,Wunderground v.1.15,2013-02-24 07:09:00,
2013-02-23 23:19:00,43.8,37.1,30.23,West,280,0.0,0.0,77,0.00,,,0.00,0,Wunderground v.1.15,2013-02-24 07:19:00,
2013-02-23 23:29:00,43.5,36.8,30.22,SSE,164,2.0,2.0,77,0.00,,,0.00,0,Wunderground v.1.15,2013-02-24 07:29:00,
2013-02-23 23:39:00,42.7,36.6,30.23,SSE,164,0.0,0.0,79,0.00,,,0.00,0,Wunderground v.1.15,2013-02-24 07:39:00,
2013-02-23 23:44:00,42.5,36.1,30.23,SSE,164,0.0,0.0,78,0.00,,,0.00,0,Wunderground v.1.15,2013-02-24 07:44:00,
2013-02-23 23:49:00,42.3,36.3,30.23,SSE,164,0.0,0.0,79,0.00,,,0.00,0,Wunderground v.1.15,2013-02-24 07:49:00,
2013-02-23 23:59:00,43.1,37.3,30.23,WNW,299,1.0,1.0,80,0.00,,,0.00,0,Wunderground v.1.15,2013-02-24 07:59:00,